sensor_id;sensor_type;location;lat;lon;timestamp;temperature;humidity
3713;DHT22;1872;51.406;6.856;2023-09-12T00:00:56;21.00;99.90
3713;DHT22;1872;51.406;6.856;2023-09-12T00:13:41;21.00;99.90
3713;DHT22;1872;51.406;6.856;2023-09-12T00:16:07;20.90;99.90
3713;DHT22;1872;51.406;6.856;2023-09-12T00:18:37;20.90;99.90
3713;DHT22;1872;51.406;6.856;2023-09-12T00:21:03;20.90;99.90
3713;DHT22;1872;51.406;6.856;2023-09-12T00:23:29;20.90;99.90
3713;DHT22;1872;51.406;6.856;2023-09-12T00:25:56;20.90;99.90
3713;DHT22;1872;51.406;6.856;2023-09-12T00:28:22;20.90;99.90
3713;DHT22;1872;51.406;6.856;2023-09-12T00:30:47;20.90;99.90
3713;DHT22;1872;51.406;6.856;2023-09-12T00:33:13;20.90;99.90
3713;DHT22;1872;51.406;6.856;2023-09-12T00:35:39;20.80;99.90
3713;DHT22;1872;51.406;6.856;2023-09-12T00:38:04;20.80;99.90
3713;DHT22;1872;51.406;6.856;2023-09-12T00:40:32;20.80;99.90
3713;DHT22;1872;51.406;6.856;2023-09-12T00:42:58;20.70;99.90
3713;DHT22;1872;51.406;6.856;2023-09-12T00:45:24;20.70;99.90
3713;DHT22;1872;51.406;6.856;2023-09-12T00:47:51;20.60;99.90
3713;DHT22;1872;51.406;6.856;2023-09-12T00:50:19;20.60;99.90
3713;DHT22;1872;51.406;6.856;2023-09-12T00:52:46;20.60;99.90
3713;DHT22;1872;51.406;6.856;2023-09-12T00:55:14;20.70;99.90
3713;DHT22;1872;51.406;6.856;2023-09-12T00:57:40;20.70;99.90
3713;DHT22;1872;51.406;6.856;2023-09-12T01:00:06;20.70;99.90
3713;DHT22;1872;51.406;6.856;2023-09-12T01:02:39;20.80;99.90
3713;DHT22;1872;51.406;6.856;2023-09-12T01:05:07;20.80;99.90
3713;DHT22;1872;51.406;6.856;2023-09-12T01:07:34;20.80;99.90
3713;DHT22;1872;51.406;6.856;2023-09-12T01:10:01;20.80;99.90
3713;DHT22;1872;51.406;6.856;2023-09-12T01:12:27;20.80;99.90
3713;DHT22;1872;51.406;6.856;2023-09-12T01:14:53;20.80;99.90
3713;DHT22;1872;51.406;6.856;2023-09-12T01:17:18;20.80;99.90
3713;DHT22;1872;51.406;6.856;2023-09-12T01:19:44;20.80;99.90
3713;DHT22;1872;51.406;6.856;2023-09-12T01:27:38;20.80;99.90
3713;DHT22;1872;51.406;6.856;2023-09-12T01:30:06;20.80;99.90
3713;DHT22;1872;51.406;6.856;2023-09-12T01:32:33;20.70;99.90
3713;DHT22;1872;51.406;6.856;2023-09-12T01:35:00;20.70;99.90
3713;DHT22;1872;51.406;6.856;2023-09-12T01:37:25;20.70;99.90
3713;DHT22;1872;51.406;6.856;2023-09-12T01:39:52;20.60;99.90
3713;DHT22;1872;51.406;6.856;2023-09-12T01:42:20;20.50;99.90
3713;DHT22;1872;51.406;6.856;2023-09-12T01:44:51;20.50;99.90
3713;DHT22;1872;51.406;6.856;2023-09-12T01:47:20;20.50;99.90
3713;DHT22;1872;51.406;6.856;2023-09-12T01:49:49;20.40;99.90
3713;DHT22;1872;51.406;6.856;2023-09-12T01:52:15;20.40;99.90
3713;DHT22;1872;51.406;6.856;2023-09-12T01:54:42;20.40;99.90
3713;DHT22;1872;51.406;6.856;2023-09-12T01:57:09;20.40;99.90
3713;DHT22;1872;51.406;6.856;2023-09-12T01:59:35;20.40;99.90
3713;DHT22;1872;51.406;6.856;2023-09-12T02:02:01;20.40;99.90
3713;DHT22;1872;51.406;6.856;2023-09-12T02:04:27;20.40;99.90
3713;DHT22;1872;51.406;6.856;2023-09-12T02:06:53;20.40;99.90
3713;DHT22;1872;51.406;6.856;2023-09-12T02:09:18;20.40;99.90
3713;DHT22;1872;51.406;6.856;2023-09-12T02:11:45;20.40;99.90
3713;DHT22;1872;51.406;6.856;2023-09-12T02:14:10;20.40;99.90
3713;DHT22;1872;51.406;6.856;2023-09-12T02:16:37;20.40;99.90
3713;DHT22;1872;51.406;6.856;2023-09-12T02:19:04;20.30;99.90
3713;DHT22;1872;51.406;6.856;2023-09-12T02:21:30;20.30;99.90
3713;DHT22;1872;51.406;6.856;2023-09-12T02:23:55;20.30;99.90
3713;DHT22;1872;51.406;6.856;2023-09-12T02:26:21;20.40;99.90
3713;DHT22;1872;51.406;6.856;2023-09-12T02:28:47;20.40;99.90
3713;DHT22;1872;51.406;6.856;2023-09-12T02:31:12;20.40;99.90
3713;DHT22;1872;51.406;6.856;2023-09-12T02:33:39;20.40;99.90
3713;DHT22;1872;51.406;6.856;2023-09-12T02:36:05;20.40;99.90
3713;DHT22;1872;51.406;6.856;2023-09-12T02:38:30;20.40;99.90
3713;DHT22;1872;51.406;6.856;2023-09-12T02:40:56;20.40;99.90
3713;DHT22;1872;51.406;6.856;2023-09-12T02:43:22;20.40;99.90
3713;DHT22;1872;51.406;6.856;2023-09-12T02:45:47;20.40;99.90
3713;DHT22;1872;51.406;6.856;2023-09-12T02:48:13;20.40;99.90
3713;DHT22;1872;51.406;6.856;2023-09-12T02:50:39;20.40;99.90
3713;DHT22;1872;51.406;6.856;2023-09-12T02:53:04;20.40;99.90
3713;DHT22;1872;51.406;6.856;2023-09-12T02:55:30;20.40;99.90
3713;DHT22;1872;51.406;6.856;2023-09-12T02:57:56;20.40;99.90
3713;DHT22;1872;51.406;6.856;2023-09-12T03:00:22;20.40;99.90
3713;DHT22;1872;51.406;6.856;2023-09-12T03:02:47;20.30;99.90
3713;DHT22;1872;51.406;6.856;2023-09-12T03:05:13;20.30;99.90
3713;DHT22;1872;51.406;6.856;2023-09-12T03:07:39;20.30;99.90
3713;DHT22;1872;51.406;6.856;2023-09-12T03:10:05;20.20;99.90
3713;DHT22;1872;51.406;6.856;2023-09-12T03:12:30;20.10;99.90
3713;DHT22;1872;51.406;6.856;2023-09-12T03:14:57;20.10;99.90
3713;DHT22;1872;51.406;6.856;2023-09-12T03:17:22;20.10;99.90
3713;DHT22;1872;51.406;6.856;2023-09-12T03:19:48;20.10;99.90
3713;DHT22;1872;51.406;6.856;2023-09-12T03:22:14;20.10;99.90
3713;DHT22;1872;51.406;6.856;2023-09-12T03:24:39;20.10;99.90
3713;DHT22;1872;51.406;6.856;2023-09-12T03:27:05;20.10;99.90
3713;DHT22;1872;51.406;6.856;2023-09-12T03:29:30;20.10;99.90
3713;DHT22;1872;51.406;6.856;2023-09-12T03:31:56;20.10;99.90
3713;DHT22;1872;51.406;6.856;2023-09-12T03:34:22;20.20;99.90
3713;DHT22;1872;51.406;6.856;2023-09-12T03:36:47;20.10;99.90
3713;DHT22;1872;51.406;6.856;2023-09-12T03:39:16;20.10;99.90
3713;DHT22;1872;51.406;6.856;2023-09-12T03:41:42;20.20;99.90
3713;DHT22;1872;51.406;6.856;2023-09-12T03:44:08;20.10;99.90
3713;DHT22;1872;51.406;6.856;2023-09-12T03:46:33;20.10;99.90
3713;DHT22;1872;51.406;6.856;2023-09-12T03:48:59;20.10;99.90
3713;DHT22;1872;51.406;6.856;2023-09-12T03:51:24;20.00;99.90
3713;DHT22;1872;51.406;6.856;2023-09-12T03:53:50;20.00;99.90
3713;DHT22;1872;51.406;6.856;2023-09-12T03:56:17;20.00;99.90
3713;DHT22;1872;51.406;6.856;2023-09-12T03:58:45;20.00;99.90
3713;DHT22;1872;51.406;6.856;2023-09-12T04:01:12;20.00;99.90
3713;DHT22;1872;51.406;6.856;2023-09-12T04:03:37;20.00;99.90
3713;DHT22;1872;51.406;6.856;2023-09-12T04:06:03;20.00;99.90
3713;DHT22;1872;51.406;6.856;2023-09-12T04:08:29;20.00;99.90
3713;DHT22;1872;51.406;6.856;2023-09-12T04:10:55;19.90;99.90
3713;DHT22;1872;51.406;6.856;2023-09-12T04:13:20;19.90;99.90
3713;DHT22;1872;51.406;6.856;2023-09-12T04:15:46;19.90;99.90
3713;DHT22;1872;51.406;6.856;2023-09-12T04:18:11;19.90;99.90
3713;DHT22;1872;51.406;6.856;2023-09-12T04:20:37;19.90;99.90
3713;DHT22;1872;51.406;6.856;2023-09-12T04:23:03;19.90;99.90
3713;DHT22;1872;51.406;6.856;2023-09-12T04:25:30;19.90;99.90
3713;DHT22;1872;51.406;6.856;2023-09-12T04:27:56;19.80;99.90
3713;DHT22;1872;51.406;6.856;2023-09-12T04:30:21;19.80;99.90
3713;DHT22;1872;51.406;6.856;2023-09-12T04:32:47;19.90;99.90
3713;DHT22;1872;51.406;6.856;2023-09-12T04:35:13;19.80;99.90
3713;DHT22;1872;51.406;6.856;2023-09-12T04:37:39;19.80;99.90
3713;DHT22;1872;51.406;6.856;2023-09-12T04:40:06;19.80;99.90
3713;DHT22;1872;51.406;6.856;2023-09-12T04:42:32;19.80;99.90
3713;DHT22;1872;51.406;6.856;2023-09-12T04:44:57;19.80;99.90
3713;DHT22;1872;51.406;6.856;2023-09-12T04:47:23;19.80;99.90
3713;DHT22;1872;51.406;6.856;2023-09-12T04:49:49;19.80;99.90
3713;DHT22;1872;51.406;6.856;2023-09-12T04:52:14;19.80;99.90
3713;DHT22;1872;51.406;6.856;2023-09-12T04:54:40;19.80;99.90
3713;DHT22;1872;51.406;6.856;2023-09-12T04:57:07;19.90;99.90
3713;DHT22;1872;51.406;6.856;2023-09-12T04:59:32;19.90;99.90
3713;DHT22;1872;51.406;6.856;2023-09-12T05:01:58;19.90;99.90
3713;DHT22;1872;51.406;6.856;2023-09-12T05:04:25;19.90;99.90
3713;DHT22;1872;51.406;6.856;2023-09-12T05:06:50;19.90;99.90
3713;DHT22;1872;51.406;6.856;2023-09-12T05:09:16;19.90;99.90
3713;DHT22;1872;51.406;6.856;2023-09-12T05:11:42;19.90;99.90
3713;DHT22;1872;51.406;6.856;2023-09-12T05:14:07;19.90;99.90
3713;DHT22;1872;51.406;6.856;2023-09-12T05:16:33;19.90;99.90
3713;DHT22;1872;51.406;6.856;2023-09-12T05:18:59;19.90;99.90
3713;DHT22;1872;51.406;6.856;2023-09-12T05:21:24;20.00;99.90
3713;DHT22;1872;51.406;6.856;2023-09-12T05:23:50;20.00;99.90
3713;DHT22;1872;51.406;6.856;2023-09-12T05:26:18;19.90;99.90
3713;DHT22;1872;51.406;6.856;2023-09-12T05:28:43;19.90;99.90
3713;DHT22;1872;51.406;6.856;2023-09-12T05:31:09;19.90;99.90
3713;DHT22;1872;51.406;6.856;2023-09-12T05:33:35;19.90;99.90
3713;DHT22;1872;51.406;6.856;2023-09-12T05:36:02;20.00;99.90
3713;DHT22;1872;51.406;6.856;2023-09-12T05:38:31;20.00;99.90
3713;DHT22;1872;51.406;6.856;2023-09-12T05:40:57;20.00;99.90
3713;DHT22;1872;51.406;6.856;2023-09-12T05:43:23;20.00;99.90
3713;DHT22;1872;51.406;6.856;2023-09-12T05:45:48;20.00;99.90
3713;DHT22;1872;51.406;6.856;2023-09-12T05:48:14;20.00;99.90
3713;DHT22;1872;51.406;6.856;2023-09-12T05:50:40;20.00;99.90
3713;DHT22;1872;51.406;6.856;2023-09-12T05:53:08;20.10;99.90
3713;DHT22;1872;51.406;6.856;2023-09-12T05:55:36;20.00;99.90
3713;DHT22;1872;51.406;6.856;2023-09-12T05:58:05;20.10;99.90
3713;DHT22;1872;51.406;6.856;2023-09-12T06:00:31;20.10;99.90
3713;DHT22;1872;51.406;6.856;2023-09-12T06:02:57;20.10;99.90
3713;DHT22;1872;51.406;6.856;2023-09-12T06:05:23;20.20;99.90
3713;DHT22;1872;51.406;6.856;2023-09-12T06:07:48;20.20;99.90
3713;DHT22;1872;51.406;6.856;2023-09-12T06:10:14;20.30;99.90
3713;DHT22;1872;51.406;6.856;2023-09-12T06:12:40;20.30;99.90
3713;DHT22;1872;51.406;6.856;2023-09-12T06:15:06;20.30;99.90
3713;DHT22;1872;51.406;6.856;2023-09-12T06:17:32;20.40;99.90
3713;DHT22;1872;51.406;6.856;2023-09-12T06:19:57;20.40;99.90
3713;DHT22;1872;51.406;6.856;2023-09-12T06:22:23;20.50;99.90
3713;DHT22;1872;51.406;6.856;2023-09-12T06:24:53;20.20;99.90
3713;DHT22;1872;51.406;6.856;2023-09-12T06:27:18;19.90;99.90
3713;DHT22;1872;51.406;6.856;2023-09-12T06:29:50;19.60;99.90
3713;DHT22;1872;51.406;6.856;2023-09-12T06:32:17;19.20;99.90
3713;DHT22;1872;51.406;6.856;2023-09-12T06:34:43;18.70;99.90
3713;DHT22;1872;51.406;6.856;2023-09-12T06:37:11;18.40;99.90
3713;DHT22;1872;51.406;6.856;2023-09-12T06:39:37;18.30;99.90
3713;DHT22;1872;51.406;6.856;2023-09-12T06:42:03;18.30;99.90
3713;DHT22;1872;51.406;6.856;2023-09-12T06:44:29;18.30;99.90
3713;DHT22;1872;51.406;6.856;2023-09-12T06:46:54;18.30;99.90
3713;DHT22;1872;51.406;6.856;2023-09-12T06:49:20;18.20;99.90
3713;DHT22;1872;51.406;6.856;2023-09-12T06:51:45;18.20;99.90
3713;DHT22;1872;51.406;6.856;2023-09-12T06:54:11;18.10;99.90
3713;DHT22;1872;51.406;6.856;2023-09-12T06:56:38;18.10;99.90
3713;DHT22;1872;51.406;6.856;2023-09-12T06:59:04;18.00;99.90
3713;DHT22;1872;51.406;6.856;2023-09-12T07:01:30;18.00;99.90
3713;DHT22;1872;51.406;6.856;2023-09-12T07:03:55;17.90;99.90
3713;DHT22;1872;51.406;6.856;2023-09-12T07:06:23;18.00;99.90
3713;DHT22;1872;51.406;6.856;2023-09-12T07:08:49;18.00;99.90
3713;DHT22;1872;51.406;6.856;2023-09-12T07:11:15;18.00;99.90
3713;DHT22;1872;51.406;6.856;2023-09-12T07:13:40;18.10;99.90
3713;DHT22;1872;51.406;6.856;2023-09-12T07:19:18;18.10;99.90
3713;DHT22;1872;51.406;6.856;2023-09-12T07:21:46;18.10;99.90
3713;DHT22;1872;51.406;6.856;2023-09-12T07:24:15;18.10;99.90
3713;DHT22;1872;51.406;6.856;2023-09-12T07:26:41;18.10;99.90
3713;DHT22;1872;51.406;6.856;2023-09-12T07:29:08;18.10;99.90
3713;DHT22;1872;51.406;6.856;2023-09-12T07:31:34;18.10;99.90
3713;DHT22;1872;51.406;6.856;2023-09-12T07:33:59;18.10;99.90
3713;DHT22;1872;51.406;6.856;2023-09-12T07:36:25;18.10;99.90
3713;DHT22;1872;51.406;6.856;2023-09-12T07:38:50;18.10;99.90
3713;DHT22;1872;51.406;6.856;2023-09-12T07:41:16;18.10;99.90
3713;DHT22;1872;51.406;6.856;2023-09-12T07:43:42;18.20;99.90
3713;DHT22;1872;51.406;6.856;2023-09-12T07:46:07;18.20;99.90
3713;DHT22;1872;51.406;6.856;2023-09-12T07:48:33;18.30;99.90
3713;DHT22;1872;51.406;6.856;2023-09-12T07:50:58;18.30;99.90
3713;DHT22;1872;51.406;6.856;2023-09-12T07:53:24;18.30;99.90
3713;DHT22;1872;51.406;6.856;2023-09-12T07:55:50;18.40;99.90
3713;DHT22;1872;51.406;6.856;2023-09-12T07:58:18;18.40;99.90
3713;DHT22;1872;51.406;6.856;2023-09-12T08:00:47;18.50;99.90
3713;DHT22;1872;51.406;6.856;2023-09-12T08:03:13;18.50;99.90
3713;DHT22;1872;51.406;6.856;2023-09-12T08:05:39;18.50;99.90
3713;DHT22;1872;51.406;6.856;2023-09-12T08:08:05;18.60;99.90
3713;DHT22;1872;51.406;6.856;2023-09-12T08:10:30;18.60;99.90
3713;DHT22;1872;51.406;6.856;2023-09-12T08:12:56;18.60;99.90
3713;DHT22;1872;51.406;6.856;2023-09-12T08:15:22;18.70;99.90
3713;DHT22;1872;51.406;6.856;2023-09-12T08:17:47;18.70;99.90
3713;DHT22;1872;51.406;6.856;2023-09-12T08:20:17;18.80;99.90
3713;DHT22;1872;51.406;6.856;2023-09-12T08:22:43;18.90;99.90
3713;DHT22;1872;51.406;6.856;2023-09-12T08:25:09;19.00;99.90
3713;DHT22;1872;51.406;6.856;2023-09-12T08:27:35;19.20;99.90
3713;DHT22;1872;51.406;6.856;2023-09-12T08:30:01;19.30;99.90
3713;DHT22;1872;51.406;6.856;2023-09-12T08:32:27;19.40;99.90
3713;DHT22;1872;51.406;6.856;2023-09-12T08:34:52;19.60;99.90
3713;DHT22;1872;51.406;6.856;2023-09-12T08:37:18;19.80;99.90
3713;DHT22;1872;51.406;6.856;2023-09-12T08:39:44;20.00;99.90
3713;DHT22;1872;51.406;6.856;2023-09-12T08:42:15;20.20;99.90
3713;DHT22;1872;51.406;6.856;2023-09-12T08:44:42;20.20;99.90
3713;DHT22;1872;51.406;6.856;2023-09-12T08:47:09;20.30;99.90
3713;DHT22;1872;51.406;6.856;2023-09-12T08:49:36;20.30;99.90
3713;DHT22;1872;51.406;6.856;2023-09-12T08:52:06;20.50;99.90
3713;DHT22;1872;51.406;6.856;2023-09-12T08:54:32;20.60;99.90
3713;DHT22;1872;51.406;6.856;2023-09-12T08:57:01;20.80;99.90
3713;DHT22;1872;51.406;6.856;2023-09-12T08:59:30;20.90;99.90
3713;DHT22;1872;51.406;6.856;2023-09-12T09:02:01;21.00;99.90
3713;DHT22;1872;51.406;6.856;2023-09-12T09:04:32;21.10;99.90
3713;DHT22;1872;51.406;6.856;2023-09-12T09:06:59;21.30;99.90
3713;DHT22;1872;51.406;6.856;2023-09-12T09:09:26;21.40;99.90
3713;DHT22;1872;51.406;6.856;2023-09-12T09:11:54;21.40;99.90
3713;DHT22;1872;51.406;6.856;2023-09-12T09:14:21;21.60;99.90
3713;DHT22;1872;51.406;6.856;2023-09-12T09:16:47;21.60;99.90
3713;DHT22;1872;51.406;6.856;2023-09-12T09:19:43;21.70;99.90
3713;DHT22;1872;51.406;6.856;2023-09-12T09:22:09;21.70;99.90
3713;DHT22;1872;51.406;6.856;2023-09-12T09:24:34;21.80;99.90
3713;DHT22;1872;51.406;6.856;2023-09-12T09:27:00;21.80;99.90
3713;DHT22;1872;51.406;6.856;2023-09-12T09:29:27;21.80;99.90
3713;DHT22;1872;51.406;6.856;2023-09-12T09:32:02;21.80;99.90
3713;DHT22;1872;51.406;6.856;2023-09-12T09:34:30;21.80;99.90
3713;DHT22;1872;51.406;6.856;2023-09-12T09:36:57;21.80;99.90
3713;DHT22;1872;51.406;6.856;2023-09-12T09:39:26;21.80;99.90
3713;DHT22;1872;51.406;6.856;2023-09-12T09:41:57;21.70;99.90
3713;DHT22;1872;51.406;6.856;2023-09-12T09:44:24;21.70;99.90
3713;DHT22;1872;51.406;6.856;2023-09-12T09:46:58;21.60;99.90
3713;DHT22;1872;51.406;6.856;2023-09-12T09:49:26;21.60;99.90
3713;DHT22;1872;51.406;6.856;2023-09-12T09:51:54;21.60;99.90
3713;DHT22;1872;51.406;6.856;2023-09-12T09:54:26;21.60;99.90
3713;DHT22;1872;51.406;6.856;2023-09-12T09:56:56;21.70;99.90
3713;DHT22;1872;51.406;6.856;2023-09-12T09:59:26;21.80;99.90
3713;DHT22;1872;51.406;6.856;2023-09-12T10:01:59;21.80;99.90
3713;DHT22;1872;51.406;6.856;2023-09-12T10:04:28;21.90;99.90
3713;DHT22;1872;51.406;6.856;2023-09-12T10:06:56;21.90;99.90
3713;DHT22;1872;51.406;6.856;2023-09-12T10:09:25;21.90;99.90
3713;DHT22;1872;51.406;6.856;2023-09-12T10:11:55;21.90;99.90
3713;DHT22;1872;51.406;6.856;2023-09-12T10:14:24;21.90;99.90
3713;DHT22;1872;51.406;6.856;2023-09-12T10:17:01;22.00;99.90
3713;DHT22;1872;51.406;6.856;2023-09-12T10:19:39;22.00;99.90
3713;DHT22;1872;51.406;6.856;2023-09-12T10:22:17;22.00;99.90
3713;DHT22;1872;51.406;6.856;2023-09-12T10:24:46;22.00;99.90
3713;DHT22;1872;51.406;6.856;2023-09-12T10:27:14;22.10;99.90
3713;DHT22;1872;51.406;6.856;2023-09-12T10:29:40;22.10;99.90
3713;DHT22;1872;51.406;6.856;2023-09-12T10:32:06;22.10;99.90
3713;DHT22;1872;51.406;6.856;2023-09-12T10:34:32;22.10;99.90
3713;DHT22;1872;51.406;6.856;2023-09-12T10:36:59;22.20;99.90
3713;DHT22;1872;51.406;6.856;2023-09-12T10:39:32;22.30;99.90
3713;DHT22;1872;51.406;6.856;2023-09-12T10:41:59;22.40;99.90
3713;DHT22;1872;51.406;6.856;2023-09-12T10:44:28;22.50;99.90
3713;DHT22;1872;51.406;6.856;2023-09-12T10:46:54;22.50;99.90
3713;DHT22;1872;51.406;6.856;2023-09-12T10:49:20;22.50;99.90
3713;DHT22;1872;51.406;6.856;2023-09-12T10:51:47;22.40;99.90
3713;DHT22;1872;51.406;6.856;2023-09-12T10:54:15;22.40;99.90
3713;DHT22;1872;51.406;6.856;2023-09-12T10:56:41;22.30;99.90
3713;DHT22;1872;51.406;6.856;2023-09-12T11:01:41;22.30;99.90
3713;DHT22;1872;51.406;6.856;2023-09-12T11:06:46;22.30;99.90
3713;DHT22;1872;51.406;6.856;2023-09-12T11:09:42;22.30;99.90
3713;DHT22;1872;51.406;6.856;2023-09-12T11:12:35;22.40;99.90
3713;DHT22;1872;51.406;6.856;2023-09-12T11:15:06;22.40;99.90
3713;DHT22;1872;51.406;6.856;2023-09-12T11:17:37;22.40;99.90
3713;DHT22;1872;51.406;6.856;2023-09-12T11:20:03;22.50;99.90
3713;DHT22;1872;51.406;6.856;2023-09-12T11:22:37;22.50;99.90
3713;DHT22;1872;51.406;6.856;2023-09-12T11:25:15;22.50;99.90
3713;DHT22;1872;51.406;6.856;2023-09-12T11:30:16;22.60;99.90
3713;DHT22;1872;51.406;6.856;2023-09-12T11:32:48;22.70;99.90
3713;DHT22;1872;51.406;6.856;2023-09-12T11:35:14;22.70;99.90
3713;DHT22;1872;51.406;6.856;2023-09-12T11:37:57;22.80;99.90
3713;DHT22;1872;51.406;6.856;2023-09-12T11:40:43;22.80;99.90
3713;DHT22;1872;51.406;6.856;2023-09-12T11:43:26;22.90;99.90
3713;DHT22;1872;51.406;6.856;2023-09-12T11:45:52;22.90;99.90
3713;DHT22;1872;51.406;6.856;2023-09-12T11:48:19;22.80;99.90
3713;DHT22;1872;51.406;6.856;2023-09-12T11:50:53;22.80;99.90
3713;DHT22;1872;51.406;6.856;2023-09-12T11:53:21;22.90;99.90
3713;DHT22;1872;51.406;6.856;2023-09-12T11:55:49;23.00;99.90
3713;DHT22;1872;51.406;6.856;2023-09-12T11:58:18;23.00;99.90
3713;DHT22;1872;51.406;6.856;2023-09-12T12:00:55;23.00;99.90
3713;DHT22;1872;51.406;6.856;2023-09-12T12:03:25;23.00;99.90
3713;DHT22;1872;51.406;6.856;2023-09-12T12:05:52;23.00;99.90
3713;DHT22;1872;51.406;6.856;2023-09-12T12:08:18;23.10;99.90
3713;DHT22;1872;51.406;6.856;2023-09-12T12:10:50;23.10;99.90
3713;DHT22;1872;51.406;6.856;2023-09-12T12:13:20;23.20;99.90
3713;DHT22;1872;51.406;6.856;2023-09-12T12:15:46;23.30;99.90
3713;DHT22;1872;51.406;6.856;2023-09-12T12:18:13;23.30;99.90
3713;DHT22;1872;51.406;6.856;2023-09-12T12:20:39;23.30;99.90
3713;DHT22;1872;51.406;6.856;2023-09-12T12:23:05;23.30;99.90
3713;DHT22;1872;51.406;6.856;2023-09-12T12:25:34;23.30;99.90
3713;DHT22;1872;51.406;6.856;2023-09-12T12:28:01;23.30;99.90
3713;DHT22;1872;51.406;6.856;2023-09-12T12:30:30;23.30;99.90
3713;DHT22;1872;51.406;6.856;2023-09-12T12:32:56;23.40;99.90
3713;DHT22;1872;51.406;6.856;2023-09-12T12:35:23;23.40;99.90
3713;DHT22;1872;51.406;6.856;2023-09-12T12:37:52;23.40;99.90
3713;DHT22;1872;51.406;6.856;2023-09-12T12:40:19;23.40;99.90
3713;DHT22;1872;51.406;6.856;2023-09-12T12:42:45;23.40;99.90
3713;DHT22;1872;51.406;6.856;2023-09-12T12:45:18;23.40;99.90
3713;DHT22;1872;51.406;6.856;2023-09-12T12:47:45;23.40;99.90
3713;DHT22;1872;51.406;6.856;2023-09-12T12:50:11;23.50;99.90
3713;DHT22;1872;51.406;6.856;2023-09-12T12:52:38;23.50;99.90
3713;DHT22;1872;51.406;6.856;2023-09-12T12:55:11;23.50;99.90
3713;DHT22;1872;51.406;6.856;2023-09-12T12:57:38;23.50;99.90
3713;DHT22;1872;51.406;6.856;2023-09-12T13:00:15;23.60;99.90
3713;DHT22;1872;51.406;6.856;2023-09-12T13:02:43;23.60;99.90
3713;DHT22;1872;51.406;6.856;2023-09-12T13:05:38;23.60;99.90
3713;DHT22;1872;51.406;6.856;2023-09-12T13:08:07;23.60;99.90
3713;DHT22;1872;51.406;6.856;2023-09-12T13:10:32;23.60;99.90
3713;DHT22;1872;51.406;6.856;2023-09-12T13:12:58;23.60;99.90
3713;DHT22;1872;51.406;6.856;2023-09-12T13:15:24;23.60;99.90
3713;DHT22;1872;51.406;6.856;2023-09-12T13:17:49;23.70;99.90
3713;DHT22;1872;51.406;6.856;2023-09-12T13:20:15;23.70;99.90
3713;DHT22;1872;51.406;6.856;2023-09-12T13:22:41;23.70;99.90
3713;DHT22;1872;51.406;6.856;2023-09-12T13:25:10;23.80;99.90
3713;DHT22;1872;51.406;6.856;2023-09-12T13:27:35;23.80;99.90
3713;DHT22;1872;51.406;6.856;2023-09-12T13:30:01;23.80;99.90
3713;DHT22;1872;51.406;6.856;2023-09-12T13:32:29;23.80;99.90
3713;DHT22;1872;51.406;6.856;2023-09-12T13:34:54;23.80;99.90
3713;DHT22;1872;51.406;6.856;2023-09-12T13:37:20;23.70;99.90
3713;DHT22;1872;51.406;6.856;2023-09-12T13:39:46;23.70;99.90
3713;DHT22;1872;51.406;6.856;2023-09-12T13:42:15;23.60;99.90
3713;DHT22;1872;51.406;6.856;2023-09-12T13:44:44;23.50;99.90
3713;DHT22;1872;51.406;6.856;2023-09-12T13:47:10;23.50;99.90
3713;DHT22;1872;51.406;6.856;2023-09-12T13:49:36;23.60;99.90
3713;DHT22;1872;51.406;6.856;2023-09-12T13:52:02;23.70;99.90
3713;DHT22;1872;51.406;6.856;2023-09-12T13:54:28;23.70;99.90
3713;DHT22;1872;51.406;6.856;2023-09-12T13:56:53;23.80;99.90
3713;DHT22;1872;51.406;6.856;2023-09-12T13:59:19;23.90;99.90
3713;DHT22;1872;51.406;6.856;2023-09-12T14:01:46;23.90;99.90
3713;DHT22;1872;51.406;6.856;2023-09-12T14:04:12;24.00;99.90
3713;DHT22;1872;51.406;6.856;2023-09-12T14:06:39;24.00;99.90
3713;DHT22;1872;51.406;6.856;2023-09-12T14:09:05;24.00;99.90
3713;DHT22;1872;51.406;6.856;2023-09-12T14:11:31;24.10;99.90
3713;DHT22;1872;51.406;6.856;2023-09-12T14:13:56;24.10;99.90
3713;DHT22;1872;51.406;6.856;2023-09-12T14:16:23;24.10;99.90
3713;DHT22;1872;51.406;6.856;2023-09-12T14:18:49;24.10;99.90
3713;DHT22;1872;51.406;6.856;2023-09-12T14:21:14;24.10;99.90
3713;DHT22;1872;51.406;6.856;2023-09-12T14:23:40;24.00;99.90
3713;DHT22;1872;51.406;6.856;2023-09-12T14:26:05;24.00;99.90
3713;DHT22;1872;51.406;6.856;2023-09-12T14:28:31;24.00;99.90
3713;DHT22;1872;51.406;6.856;2023-09-12T14:31:00;23.90;99.90
3713;DHT22;1872;51.406;6.856;2023-09-12T14:33:26;23.90;99.90
3713;DHT22;1872;51.406;6.856;2023-09-12T14:35:51;23.90;99.90
3713;DHT22;1872;51.406;6.856;2023-09-12T14:38:17;23.80;99.90
3713;DHT22;1872;51.406;6.856;2023-09-12T14:40:42;23.80;99.90
3713;DHT22;1872;51.406;6.856;2023-09-12T14:43:08;23.80;99.90
3713;DHT22;1872;51.406;6.856;2023-09-12T14:45:34;23.90;99.90
3713;DHT22;1872;51.406;6.856;2023-09-12T14:47:59;23.90;99.90
3713;DHT22;1872;51.406;6.856;2023-09-12T14:50:26;24.00;99.90
3713;DHT22;1872;51.406;6.856;2023-09-12T14:52:55;24.00;99.90
3713;DHT22;1872;51.406;6.856;2023-09-12T14:55:21;24.10;99.90
3713;DHT22;1872;51.406;6.856;2023-09-12T14:57:47;24.10;99.90
3713;DHT22;1872;51.406;6.856;2023-09-12T15:00:13;24.10;99.90
3713;DHT22;1872;51.406;6.856;2023-09-12T15:02:39;24.20;99.90
3713;DHT22;1872;51.406;6.856;2023-09-12T15:05:06;24.10;99.90
3713;DHT22;1872;51.406;6.856;2023-09-12T15:07:33;24.10;99.90
3713;DHT22;1872;51.406;6.856;2023-09-12T15:09:59;24.10;99.90
3713;DHT22;1872;51.406;6.856;2023-09-12T15:12:28;24.10;99.90
3713;DHT22;1872;51.406;6.856;2023-09-12T15:14:54;24.00;99.90
3713;DHT22;1872;51.406;6.856;2023-09-12T15:17:20;24.00;99.90
3713;DHT22;1872;51.406;6.856;2023-09-12T15:19:46;24.00;99.90
3713;DHT22;1872;51.406;6.856;2023-09-12T15:22:12;24.00;99.90
3713;DHT22;1872;51.406;6.856;2023-09-12T15:24:40;23.90;99.90
3713;DHT22;1872;51.406;6.856;2023-09-12T15:27:06;23.90;99.90
3713;DHT22;1872;51.406;6.856;2023-09-12T15:29:31;23.90;99.90
3713;DHT22;1872;51.406;6.856;2023-09-12T15:31:57;23.80;99.90
3713;DHT22;1872;51.406;6.856;2023-09-12T15:34:23;23.80;99.90
3713;DHT22;1872;51.406;6.856;2023-09-12T15:36:49;23.70;99.90
3713;DHT22;1872;51.406;6.856;2023-09-12T15:39:15;23.70;99.90
3713;DHT22;1872;51.406;6.856;2023-09-12T15:41:41;23.70;99.90
3713;DHT22;1872;51.406;6.856;2023-09-12T15:44:07;23.70;99.90
3713;DHT22;1872;51.406;6.856;2023-09-12T15:46:33;23.70;99.90
3713;DHT22;1872;51.406;6.856;2023-09-12T15:48:59;23.80;99.90
3713;DHT22;1872;51.406;6.856;2023-09-12T15:51:25;23.80;99.90
3713;DHT22;1872;51.406;6.856;2023-09-12T15:53:51;23.80;99.90
3713;DHT22;1872;51.406;6.856;2023-09-12T15:56:18;23.80;99.90
3713;DHT22;1872;51.406;6.856;2023-09-12T15:58:47;23.80;99.90
3713;DHT22;1872;51.406;6.856;2023-09-12T16:01:13;23.80;99.90
3713;DHT22;1872;51.406;6.856;2023-09-12T16:03:38;23.80;99.90
3713;DHT22;1872;51.406;6.856;2023-09-12T16:06:04;23.70;99.90
3713;DHT22;1872;51.406;6.856;2023-09-12T16:08:30;23.70;99.90
3713;DHT22;1872;51.406;6.856;2023-09-12T16:10:56;23.70;99.90
3713;DHT22;1872;51.406;6.856;2023-09-12T16:13:22;23.70;99.90
3713;DHT22;1872;51.406;6.856;2023-09-12T16:15:47;23.70;99.90
3713;DHT22;1872;51.406;6.856;2023-09-12T16:18:13;23.70;99.90
3713;DHT22;1872;51.406;6.856;2023-09-12T16:20:39;23.70;99.90
3713;DHT22;1872;51.406;6.856;2023-09-12T16:23:04;23.60;99.90
3713;DHT22;1872;51.406;6.856;2023-09-12T16:25:30;23.60;99.90
3713;DHT22;1872;51.406;6.856;2023-09-12T16:27:55;23.50;99.90